Time;durP1;ratioP1;P1;durP2;ratioP2;P2;SDS_P1;SDS_P2;PMS_P1;PMS_P2;Temp;Humidity;BMP_temperature;BMP_pressure;BME280_temperature;BME280_humidity;BME280_pressure;Samples;Min_cycle;Max_cycle;Signal;HPM_P1;HPM_P2
2023/03/01 00:00:04;;;;;;;31.20;14.20;;;;;;;4.75;49.72;102806.69;5063091;27;99082;-72
2023/03/01 00:02:31;;;;;;;34.22;13.20;;;;;;;4.99;49.25;102796.69;5066370;27;99429;-72
2023/03/01 00:04:57;;;;;;;30.33;13.85;;;;;;;5.11;48.65;102804.81;5067758;27;97610;-73
2023/03/01 00:07:24;;;;;;;31.30;13.38;;;;;;;5.60;47.66;102805.72;5072548;27;97055;-71
2023/03/01 00:09:50;;;;;;;34.03;13.48;;;;;;;5.43;47.75;102800.19;5066617;27;98886;-73
2023/03/01 00:12:18;;;;;;;28.25;12.70;;;;;;;5.39;48.29;102789.59;5071416;27;98841;-72
2023/03/01 00:14:44;;;;;;;29.45;12.32;;;;;;;5.19;49.12;102789.22;5069337;27;96751;-72
2023/03/01 00:17:11;;;;;;;29.05;12.75;;;;;;;5.07;50.14;102791.59;5067275;27;99140;-72
2023/03/01 00:19:38;;;;;;;29.42;13.20;;;;;;;4.98;50.36;102792.34;5070261;27;97734;-72
2023/03/01 00:22:23;;;;;;;33.83;12.35;;;;;;;5.15;49.60;102783.03;5067399;27;98832;-72
2023/03/01 00:24:49;;;;;;;32.00;13.15;;;;;;;4.94;49.81;102781.75;5068516;27;97509;-73
2023/03/01 00:27:17;;;;;;;32.25;12.90;;;;;;;5.01;49.90;102776.66;5062957;27;97477;-72
2023/03/01 00:29:43;;;;;;;30.38;12.52;;;;;;;5.29;49.33;102777.19;5061133;27;98987;-72
2023/03/01 00:32:10;;;;;;;26.88;12.55;;;;;;;5.33;49.17;102773.75;5072848;27;99082;-72
2023/03/01 00:34:36;;;;;;;31.52;13.90;;;;;;;5.21;49.66;102771.78;5067684;27;97047;-73
2023/03/01 00:37:05;;;;;;;28.40;12.30;;;;;;;5.24;49.62;102777.09;5069727;27;96801;-73
2023/03/01 00:39:32;;;;;;;35.17;13.60;;;;;;;5.11;50.95;102777.72;5066657;27;99279;-71
2023/03/01 00:41:58;;;;;;;36.35;13.90;;;;;;;5.10;50.88;102779.47;5070677;27;97756;-72
2023/03/01 00:44:28;;;;;;;34.10;14.63;;;;;;;5.04;50.68;102773.22;5066864;27;98666;-72
2023/03/01 00:46:54;;;;;;;28.98;13.35;;;;;;;5.13;50.74;102776.00;5067964;27;98671;-72
2023/03/01 00:49:20;;;;;;;32.72;13.43;;;;;;;5.36;49.66;102765.94;5066415;27;99295;-72
2023/03/01 00:51:47;;;;;;;28.63;13.57;;;;;;;5.35;49.97;102770.31;5070422;27;99504;-71
2023/03/01 00:54:13;;;;;;;30.52;13.88;;;;;;;5.44;49.91;102769.59;5062411;27;97498;-72
2023/03/01 00:56:40;;;;;;;31.42;14.65;;;;;;;5.72;48.51;102761.31;5057608;27;99406;-71
2023/03/01 00:59:07;;;;;;;34.85;14.32;;;;;;;5.83;48.02;102766.75;5065146;27;100008;-72
2023/03/01 01:01:34;;;;;;;33.20;14.10;;;;;;;5.90;47.82;102759.06;5066588;27;101067;-71
2023/03/01 01:04:03;;;;;;;31.05;13.52;;;;;;;5.80;48.25;102759.72;5068715;27;98823;-73
2023/03/01 01:06:32;;;;;;;27.83;13.65;;;;;;;5.54;48.50;102761.03;5062572;27;98691;-73
2023/03/01 01:08:59;;;;;;;32.92;14.30;;;;;;;5.32;49.51;102766.72;5053818;27;98928;-72
2023/03/01 01:11:27;;;;;;;27.20;13.27;;;;;;;5.44;50.25;102762.63;5066232;27;101937;-72
2023/03/01 01:13:54;;;;;;;28.20;14.90;;;;;;;5.10;50.83;102753.25;5063055;27;98408;-72
2023/03/01 01:16:23;;;;;;;32.45;14.20;;;;;;;5.19;51.48;102748.16;5067978;27;99089;-72
2023/03/01 01:18:51;;;;;;;36.25;14.35;;;;;;;5.07;51.71;102745.31;5068557;27;98924;-71
2023/03/01 01:21:22;;;;;;;31.98;14.32;;;;;;;4.96;52.14;102744.25;5062770;27;98847;-72
2023/03/01 01:23:49;;;;;;;33.75;13.93;;;;;;;4.81;52.80;102750.06;5068884;27;97236;-72
2023/03/01 01:26:18;;;;;;;33.30;15.05;;;;;;;4.71;52.84;102747.25;5068860;27;97558;-72
2023/03/01 01:28:45;;;;;;;34.53;14.05;;;;;;;4.71;52.63;102747.25;5068156;27;100790;-73
2023/03/01 01:31:11;;;;;;;37.45;14.65;;;;;;;4.77;52.30;102737.78;5069556;27;98803;-71
2023/03/01 01:33:38;;;;;;;30.13;14.75;;;;;;;4.60;52.24;102730.41;5064060;27;97029;-71
2023/03/01 01:36:07;;;;;;;32.17;15.27;;;;;;;4.51;52.45;102723.28;5069672;27;97575;-72
2023/03/01 01:38:33;;;;;;;30.83;14.45;;;;;;;4.50;52.35;102718.00;5060053;27;99465;-72
2023/03/01 01:41:00;;;;;;;39.35;15.80;;;;;;;4.51;52.19;102711.91;5066190;27;98851;-71
2023/03/01 01:43:28;;;;;;;39.55;15.13;;;;;;;4.57;52.06;102717.28;5060865;27;96720;-72
2023/03/01 01:45:57;;;;;;;33.25;15.35;;;;;;;4.57;51.95;102723.38;5065129;27;98992;-72
2023/03/01 01:48:40;;;;;;;31.13;14.68;;;;;;;4.52;52.49;102719.81;5059017;27;97827;-72
2023/03/01 01:51:10;;;;;;;34.13;14.93;;;;;;;4.44;52.76;102723.09;5062578;27;98866;-71
2023/03/01 01:53:39;;;;;;;32.60;14.38;;;;;;;4.40;52.84;102725.63;5064164;27;98342;-73
2023/03/01 01:56:09;;;;;;;33.35;15.02;;;;;;;4.27;52.58;102723.59;5065433;27;97725;-72
2023/03/01 01:58:37;;;;;;;37.00;15.48;;;;;;;4.29;52.46;102721.03;5061568;27;99186;-71
2023/03/01 02:01:04;;;;;;;34.08;15.48;;;;;;;4.21;53.07;102718.25;5064858;27;98793;-73
2023/03/01 02:03:37;;;;;;;33.92;15.88;;;;;;;4.23;53.20;102716.56;5062303;27;98922;-73
2023/03/01 02:06:07;;;;;;;35.05;15.70;;;;;;;4.06;53.85;102720.53;5063421;27;96956;-72
2023/03/01 02:08:39;;;;;;;40.60;16.45;;;;;;;4.12;54.32;102727.66;5067867;27;99235;-72
2023/03/01 02:11:06;;;;;;;37.13;14.82;;;;;;;4.17;53.61;102724.28;5065645;27;100016;-72
2023/03/01 02:13:34;;;;;;;35.70;16.40;;;;;;;4.11;53.91;102731.09;5065627;27;96990;-72
2023/03/01 02:16:04;;;;;;;39.35;16.15;;;;;;;4.11;54.29;102736.34;5061935;27;98944;-72
2023/03/01 02:18:32;;;;;;;35.55;15.50;;;;;;;4.13;53.79;102734.66;5062609;27;99086;-72
2023/03/01 02:21:30;;;;;;;35.05;14.90;;;;;;;4.15;53.51;102738.16;5062674;27;99844;-72
2023/03/01 02:24:03;;;;;;;36.83;15.23;;;;;;;4.02;53.15;102737.00;5063229;27;96965;-72
2023/03/01 02:26:37;;;;;;;32.30;16.20;;;;;;;3.89;54.06;102734.94;5065553;27;97070;-72
2023/03/01 02:29:06;;;;;;;37.72;16.27;;;;;;;3.96;54.01;102735.13;5064061;27;102730;-72
2023/03/01 02:31:42;;;;;;;32.70;16.02;;;;;;;4.43;53.15;102730.06;5065951;27;98129;-72
2023/03/01 02:34:12;;;;;;;33.83;15.93;;;;;;;4.45;52.92;102735.34;5061610;27;96904;-72
2023/03/01 02:36:43;;;;;;;37.05;15.32;;;;;;;4.55;52.41;102734.66;5061888;27;97072;-72
2023/03/01 02:39:17;;;;;;;36.22;16.65;;;;;;;4.40;52.95;102736.09;5067806;27;99323;-73
2023/03/01 02:41:47;;;;;;;34.17;15.88;;;;;;;4.31;53.47;102735.03;5063589;27;99268;-73
2023/03/01 02:44:15;;;;;;;33.90;14.77;;;;;;;4.28;52.95;102734.97;5065175;27;97883;-72
2023/03/01 02:46:46;;;;;;;34.63;15.80;;;;;;;4.18;53.55;102727.78;5063310;27;97689;-73
2023/03/01 02:49:23;;;;;;;39.50;16.58;;;;;;;4.19;54.25;102727.81;5064440;27;97749;-72
2023/03/01 02:51:55;;;;;;;;;;;;;;;4.04;54.96;102731.81;5066904;27;100649;-72
2023/03/01 02:54:27;;;;;;;36.75;15.82;;;;;;;4.20;54.30;102724.31;5057850;27;98623;-72
2023/03/01 02:56:54;;;;;;;37.65;16.13;;;;;;;4.22;53.92;102722.63;5064950;27;97162;-73
2023/03/01 02:59:25;;;;;;;37.22;16.23;;;;;;;4.39;53.65;102723.00;5059306;27;99947;-73
2023/03/01 03:01:52;;;;;;;36.00;16.00;;;;;;;4.23;53.69;102713.94;5065581;27;99000;-73
2023/03/01 03:04:20;;;;;;;36.50;15.52;;;;;;;4.12;54.39;102701.47;5057576;27;97971;-74
2023/03/01 03:06:48;;;;;;;34.35;16.10;;;;;;;3.92;54.85;102703.66;5063310;27;96905;-72
2023/03/01 03:09:15;;;;;;;32.95;15.20;;;;;;;3.91;54.41;102707.09;5066270;27;99475;-72
2023/03/01 03:11:43;;;;;;;35.20;16.45;;;;;;;3.97;53.82;102702.03;5063265;27;98807;-74
2023/03/01 03:14:12;;;;;;;35.25;16.00;;;;;;;3.86;54.41;102706.13;5056671;27;97698;-74
2023/03/01 03:16:42;;;;;;;37.85;16.23;;;;;;;3.98;54.09;102709.91;5066047;27;96831;-74
2023/03/01 03:19:08;;;;;;;36.97;15.90;;;;;;;4.06;53.54;102706.59;5065673;27;99172;-74
2023/03/01 03:21:35;;;;;;;32.30;15.77;;;;;;;4.21;53.13;102715.63;5065228;27;99070;-73
2023/03/01 03:24:02;;;;;;;38.40;16.05;;;;;;;4.23;53.48;102711.31;5063487;27;98581;-73
2023/03/01 03:26:28;;;;;;;38.42;16.55;;;;;;;4.05;54.20;102705.69;5069614;27;99372;-73
2023/03/01 03:28:55;;;;;;;32.10;16.38;;;;;;;4.09;53.90;102701.41;5071542;27;98949;-73
2023/03/01 03:31:21;;;;;;;34.78;15.88;;;;;;;4.12;54.15;102707.59;5069479;27;99015;-71
2023/03/01 03:33:49;;;;;;;35.20;16.33;;;;;;;4.08;54.44;102703.13;5068759;27;96838;-73
2023/03/01 03:36:17;;;;;;;33.33;15.25;;;;;;;3.90;54.62;102693.16;5064413;27;97163;-73
2023/03/01 03:38:45;;;;;;;32.92;15.50;;;;;;;3.79;55.05;102691.16;5070959;27;98224;-73
2023/03/01 03:41:11;;;;;;;37.42;15.32;;;;;;;3.76;55.10;102686.72;5072017;27;99193;-73
2023/03/01 03:43:39;;;;;;;40.80;17.38;;;;;;;3.91;55.26;102689.69;5066003;27;97113;-74
2023/03/01 03:46:07;;;;;;;34.53;15.52;;;;;;;3.73;55.33;102685.78;5064364;27;96803;-72
2023/03/01 03:48:35;;;;;;;36.63;16.65;;;;;;;3.66;54.97;102678.63;5067036;27;97871;-73
2023/03/01 03:51:05;;;;;;;35.47;16.40;;;;;;;3.67;55.35;102683.03;5071204;27;101183;-74
2023/03/01 03:53:32;;;;;;;33.03;16.48;;;;;;;3.68;55.49;102672.56;5064390;27;98902;-74
2023/03/01 03:55:58;;;;;;;32.65;15.80;;;;;;;3.64;55.44;102667.25;5069966;27;98890;-74
2023/03/01 03:58:26;;;;;;;31.02;15.00;;;;;;;3.78;55.35;102663.22;5066079;27;98897;-73
2023/03/01 04:00:55;;;;;;;33.47;15.88;;;;;;;3.75;55.17;102674.47;5063115;27;99390;-72
2023/03/01 04:03:22;;;;;;;34.20;15.73;;;;;;;3.61;55.55;102673.28;5066763;27;96807;-72
2023/03/01 04:05:50;;;;;;;34.85;16.48;;;;;;;3.65;55.43;102666.41;5061764;27;96993;-73
2023/03/01 04:08:19;;;;;;;38.83;15.32;;;;;;;3.57;56.09;102669.72;5071337;27;99612;-73
2023/03/01 04:10:48;;;;;;;28.55;15.23;;;;;;;3.72;55.16;102670.94;5069879;27;98854;-72
2023/03/01 04:13:16;;;;;;;40.05;16.23;;;;;;;3.63;55.62;102660.25;5068553;27;96965;-72
2023/03/01 04:15:43;;;;;;;33.55;15.40;;;;;;;3.77;54.83;102664.94;5063402;27;96851;-72
2023/03/01 04:18:13;;;;;;;34.33;15.85;;;;;;;3.92;54.28;102672.25;5065225;27;99391;-72
2023/03/01 04:20:39;;;;;;;33.92;14.93;;;;;;;4.01;54.51;102675.06;5068262;27;98878;-73
2023/03/01 04:23:12;;;;;;;34.25;15.85;;;;;;;3.91;55.08;102676.63;5068932;27;97592;-72
2023/03/01 04:25:42;;;;;;;32.47;15.68;;;;;;;4.03;53.95;102672.50;5064048;27;97585;-72
2023/03/01 04:28:09;;;;;;;33.10;15.75;;;;;;;3.94;54.22;102670.53;5067643;27;99793;-71
2023/03/01 04:30:36;;;;;;;34.53;15.80;;;;;;;4.12;53.65;102670.97;5066320;27;98855;-72
2023/03/01 04:33:04;;;;;;;34.65;15.48;;;;;;;3.90;54.09;102668.72;5068038;27;99030;-71
2023/03/01 04:35:30;;;;;;;35.58;17.17;;;;;;;3.76;55.12;102671.03;5067958;27;96857;-72
2023/03/01 04:37:57;;;;;;;38.70;15.90;;;;;;;3.92;55.20;102656.56;5062567;27;98905;-73
2023/03/01 04:40:23;;;;;;;36.75;16.38;;;;;;;3.86;55.40;102661.66;5066672;27;98844;-72
2023/03/01 04:42:51;;;;;;;35.53;16.00;;;;;;;3.91;55.25;102670.50;5070638;27;96729;-73
2023/03/01 04:45:17;;;;;;;33.00;15.43;;;;;;;3.94;54.97;102666.19;5063002;27;96918;-72
2023/03/01 04:47:46;;;;;;;39.25;15.77;;;;;;;3.86;54.90;102669.50;5063727;27;97733;-72
2023/03/01 04:50:15;;;;;;;35.20;14.82;;;;;;;3.84;55.44;102671.19;5063822;27;99334;-73
2023/03/01 04:52:41;;;;;;;35.58;14.93;;;;;;;3.93;55.41;102671.41;5063586;27;97087;-72
2023/03/01 04:55:09;;;;;;;36.55;15.93;;;;;;;3.80;55.21;102661.53;5064476;27;96913;-72
2023/03/01 04:57:35;;;;;;;32.67;15.60;;;;;;;3.75;55.64;102657.91;5068619;27;98841;-72
2023/03/01 05:00:19;;;;;;;34.97;15.73;;;;;;;3.95;55.17;102664.47;5069064;27;99015;-73
2023/03/01 05:02:46;;;;;;;30.08;14.65;;;;;;;3.99;54.86;102668.94;5062455;27;97546;-73
2023/03/01 05:05:14;;;;;;;36.00;15.60;;;;;;;3.94;55.14;102665.31;5070004;27;97294;-72
2023/03/01 05:07:41;;;;;;;42.70;15.88;;;;;;;3.98;54.46;102667.16;5066797;27;99369;-72
2023/03/01 05:10:08;;;;;;;37.15;16.27;;;;;;;3.93;54.64;102664.47;5064095;27;97786;-72
2023/03/01 05:12:37;;;;;;;36.85;15.93;;;;;;;4.05;54.33;102663.84;5065681;27;96819;-73
2023/03/01 05:15:06;;;;;;;38.70;15.85;;;;;;;3.98;54.41;102667.16;5065052;27;96775;-72
2023/03/01 05:17:33;;;;;;;35.55;15.80;;;;;;;4.01;54.94;102657.63;5058492;27;99295;-72
2023/03/01 05:20:00;;;;;;;32.10;15.48;;;;;;;3.82;55.78;102659.81;5067600;27;99017;-70
2023/03/01 05:22:27;;;;;;;33.50;16.15;;;;;;;3.71;56.14;102658.69;5062205;27;97043;-70
2023/03/01 05:24:55;;;;;;;35.22;16.80;;;;;;;3.55;56.31;102658.34;5066181;27;96767;-70
2023/03/01 05:27:22;;;;;;;36.63;16.63;;;;;;;3.71;55.75;102661.31;5068513;27;99661;-69
2023/03/01 05:29:48;;;;;;;36.67;15.45;;;;;;;3.88;55.43;102665.19;5069926;27;99118;-70
2023/03/01 05:32:16;;;;;;;30.80;15.60;;;;;;;3.80;54.99;102658.91;5065275;27;97544;-70
2023/03/01 05:34:43;;;;;;;32.33;16.58;;;;;;;3.83;55.76;102651.13;5065767;27;98973;-70
2023/03/01 05:37:10;;;;;;;31.95;15.57;;;;;;;3.75;55.47;102650.06;5067171;27;99300;-70
2023/03/01 05:39:37;;;;;;;35.20;15.63;;;;;;;3.60;56.11;102651.50;5064580;27;101684;-71
2023/03/01 05:42:03;;;;;;;33.58;16.13;;;;;;;3.59;56.27;102651.47;5060494;27;98841;-71
2023/03/01 05:44:30;;;;;;;32.80;16.27;;;;;;;3.62;56.35;102646.28;5062721;27;98973;-70
2023/03/01 05:46:57;;;;;;;39.95;15.73;;;;;;;3.63;56.03;102655.00;5061022;27;98657;-71
2023/03/01 05:49:25;;;;;;;36.83;16.52;;;;;;;3.68;56.33;102648.16;5061076;27;99154;-70
2023/03/01 05:51:53;;;;;;;36.10;16.05;;;;;;;3.66;56.22;102642.03;5062119;27;96907;-70
2023/03/01 05:54:21;;;;;;;35.08;16.40;;;;;;;3.78;55.63;102650.16;5061842;27;97486;-70
2023/03/01 05:56:48;;;;;;;40.03;16.65;;;;;;;3.63;56.45;102647.19;5062751;27;99310;-70
2023/03/01 05:59:16;;;;;;;29.95;15.90;;;;;;;3.90;55.65;102647.81;5063605;27;98909;-70
2023/03/01 06:01:42;;;;;;;33.83;15.63;;;;;;;3.68;55.85;102649.03;5069062;27;96804;-69
2023/03/01 06:04:09;;;;;;;33.53;15.52;;;;;;;3.74;55.78;102646.56;5064955;27;96850;-71
2023/03/01 06:06:38;;;;;;;33.15;15.38;;;;;;;3.59;55.71;102646.22;5063028;27;99316;-70
2023/03/01 06:09:04;;;;;;;34.83;16.33;;;;;;;3.58;55.99;102654.91;5064083;27;98687;-71
2023/03/01 06:11:31;;;;;;;33.13;16.17;;;;;;;3.57;56.19;102655.75;5066040;27;97099;-70
2023/03/01 06:13:57;;;;;;;33.92;16.42;;;;;;;3.65;56.34;102659.44;5066725;27;98514;-71
2023/03/01 06:16:24;;;;;;;30.98;15.15;;;;;;;3.64;56.20;102652.44;5065725;27;99324;-71
2023/03/01 06:18:50;;;;;;;33.38;15.15;;;;;;;3.76;55.89;102649.22;5059143;27;99168;-70
2023/03/01 06:21:17;;;;;;;37.13;16.05;;;;;;;3.65;55.82;102648.09;5067193;27;98791;-70
2023/03/01 06:23:45;;;;;;;36.58;15.57;;;;;;;3.67;56.22;102649.03;5059891;27;97098;-69
2023/03/01 06:26:11;;;;;;;28.67;15.52;;;;;;;3.51;56.46;102653.00;5064500;27;98874;-71
2023/03/01 06:28:38;;;;;;;32.08;15.50;;;;;;;3.80;55.61;102651.97;5063580;27;98836;-70
2023/03/01 06:31:08;;;;;;;37.88;17.95;;;;;;;3.73;56.00;102657.00;5062365;27;97355;-71
2023/03/01 06:33:35;;;;;;;38.17;17.30;;;;;;;3.88;56.07;102658.22;5060733;27;97383;-71
2023/03/01 06:36:02;;;;;;;34.97;16.38;;;;;;;3.82;55.59;102654.59;5063683;27;99164;-72
2023/03/01 06:38:35;;;;;;;39.80;17.73;;;;;;;4.25;54.70;102651.19;5062197;27;99749;-71
2023/03/01 06:41:03;;;;;;;34.88;17.45;;;;;;;4.48;54.23;102659.47;5065334;27;97820;-69
2023/03/01 06:43:29;;;;;;;35.10;16.98;;;;;;;4.56;53.66;102665.75;5069122;27;96842;-71
2023/03/01 06:45:56;;;;;;;35.40;16.95;;;;;;;4.80;52.64;102660.97;5063507;27;98853;-71
2023/03/01 06:48:22;;;;;;;38.78;16.85;;;;;;;4.92;52.62;102660.34;5064228;27;98804;-70
2023/03/01 06:50:49;;;;;;;41.55;17.92;;;;;;;5.20;52.31;102663.44;5061706;27;97089;-70
2023/03/01 06:53:15;;;;;;;37.47;16.58;;;;;;;5.29;51.32;102661.84;5067376;27;97572;-70
2023/03/01 06:55:42;;;;;;;35.67;16.33;;;;;;;5.48;51.69;102663.91;5066799;27;98108;-71
2023/03/01 06:58:11;;;;;;;36.65;17.73;;;;;;;5.55;50.75;102666.66;5054306;27;98864;-71
2023/03/01 07:00:37;;;;;;;47.72;16.95;;;;;;;5.43;51.21;102663.84;5063595;27;97438;-71
2023/03/01 07:03:03;;;;;;;38.67;16.73;;;;;;;5.63;49.93;102669.38;5067065;27;97358;-70
2023/03/01 07:05:31;;;;;;;42.60;15.85;;;;;;;5.73;49.60;102666.03;5067262;27;98183;-72
2023/03/01 07:07:57;;;;;;;33.25;16.15;;;;;;;5.94;49.33;102673.38;5065632;27;99200;-71
2023/03/01 07:10:24;;;;;;;34.10;15.20;;;;;;;5.79;49.25;102668.75;5070973;27;97235;-71
2023/03/01 07:12:50;;;;;;;36.55;15.77;;;;;;;5.91;48.96;102673.31;5067909;27;97448;-72
2023/03/01 07:15:18;;;;;;;42.22;16.15;;;;;;;6.09;49.13;102670.97;5065288;27;98027;-72
2023/03/01 07:17:47;;;;;;;35.70;15.98;;;;;;;6.02;48.44;102683.97;5066548;27;97536;-71
2023/03/01 07:20:14;;;;;;;35.92;17.20;;;;;;;6.03;48.65;102672.63;5070089;27;97747;-72
2023/03/01 07:22:41;;;;;;;39.70;18.15;;;;;;;5.87;48.45;102675.03;5067736;27;97341;-71
2023/03/01 07:25:08;;;;;;;32.80;16.08;;;;;;;6.00;48.28;102676.06;5062406;27;100269;-71
2023/03/01 07:27:35;;;;;;;38.50;16.90;;;;;;;6.26;48.27;102671.16;5068708;27;100854;-71
2023/03/01 07:30:01;;;;;;;40.17;16.98;;;;;;;6.35;47.88;102676.56;5072550;27;97108;-71
2023/03/01 07:32:29;;;;;;;34.33;16.08;;;;;;;6.69;46.95;102676.09;5063934;27;96957;-70
2023/03/01 07:34:55;;;;;;;33.58;15.63;;;;;;;6.33;47.27;102673.00;5064285;27;98894;-71
2023/03/01 07:37:22;;;;;;;35.08;14.23;;;;;;;6.31;47.61;102677.34;5062059;27;97742;-71
2023/03/01 07:39:48;;;;;;;38.42;16.38;;;;;;;6.41;47.30;102676.63;5069542;27;96808;-70
2023/03/01 07:42:15;;;;;;;36.33;15.07;;;;;;;6.32;47.50;102668.63;5065835;27;97132;-70
2023/03/01 07:44:41;;;;;;;35.47;16.38;;;;;;;6.40;47.59;102667.88;5065499;27;99443;-71
2023/03/01 07:47:08;;;;;;;33.15;16.17;;;;;;;6.30;47.43;102673.84;5072244;27;97960;-71
2023/03/01 07:49:36;;;;;;;31.95;15.95;;;;;;;6.60;47.58;102660.22;5069855;27;98860;-70
2023/03/01 07:52:02;;;;;;;37.42;16.73;;;;;;;6.69;47.01;102662.94;5069355;27;97739;-71
2023/03/01 07:54:29;;;;;;;35.35;15.82;;;;;;;6.47;46.91;102666.19;5070959;27;98897;-71
2023/03/01 07:56:56;;;;;;;36.08;16.23;;;;;;;6.72;46.77;102662.09;5069610;27;98971;-71
2023/03/01 07:59:23;;;;;;;28.50;13.48;;;;;;;6.83;46.36;102662.22;5071389;27;96569;-71
2023/03/01 08:01:49;;;;;;;33.95;12.77;;;;;;;7.04;45.29;102672.91;5071717;27;96782;-71
2023/03/01 08:04:16;;;;;;;28.05;13.52;;;;;;;7.20;45.04;102666.94;5078968;27;99218;-74
2023/03/01 08:06:44;;;;;;;29.30;13.20;;;;;;;6.85;44.66;102665.72;5075223;27;99404;-75
2023/03/01 08:09:10;;;;;;;29.92;13.55;;;;;;;7.39;44.59;102674.13;5081810;27;96758;-75
2023/03/01 08:11:37;;;;;;;28.08;12.10;;;;;;;7.67;42.86;102664.69;5076025;27;97363;-74
2023/03/01 08:14:04;;;;;;;22.08;10.30;;;;;;;7.90;41.39;102667.47;5067978;27;98952;-73
2023/03/01 08:16:30;;;;;;;21.40;9.45;;;;;;;7.83;40.60;102660.41;5070621;27;102444;-74
2023/03/01 08:19:00;;;;;;;20.33;10.07;;;;;;;7.78;41.10;102656.84;5074184;27;97287;-74
2023/03/01 08:21:26;;;;;;;16.38;8.50;;;;;;;8.11;40.33;102651.78;5077199;27;96870;-70
2023/03/01 08:23:54;;;;;;;20.30;9.88;;;;;;;8.02;40.09;102657.88;5064164;27;98840;-72
2023/03/01 08:26:21;;;;;;;19.65;8.85;;;;;;;8.25;39.80;102657.13;5064066;27;99095;-71
2023/03/01 08:28:49;;;;;;;14.07;8.15;;;;;;;7.98;39.72;102663.13;5069470;27;96793;-74
2023/03/01 08:31:19;;;;;;;19.75;8.52;;;;;;;8.18;39.85;102648.31;5070065;27;96805;-74
2023/03/01 08:33:50;;;;;;;16.55;8.40;;;;;;;8.13;39.77;102638.63;5069828;27;99140;-77
2023/03/01 08:36:17;;;;;;;14.75;6.47;;;;;;;8.58;38.74;102636.19;5071078;27;99263;-74
2023/03/01 08:38:44;;;;;;;13.57;5.65;;;;;;;8.60;38.20;102637.06;5066673;27;97621;-74
2023/03/01 08:41:11;;;;;;;19.88;6.85;;;;;;;8.20;38.86;102641.31;5067601;27;96757;-75
2023/03/01 08:43:38;;;;;;;30.52;8.75;;;;;;;8.79;38.52;102638.84;5061579;27;99050;-75
2023/03/01 08:46:05;;;;;;;20.38;7.70;;;;;;;8.97;37.86;102632.75;5067181;27;98895;-74
2023/03/01 08:48:31;;;;;;;16.60;6.70;;;;;;;9.12;37.70;102638.00;5069011;27;98908;-75
2023/03/01 08:51:07;;;;;;;20.25;6.82;;;;;;;9.12;37.57;102639.81;5065580;27;96886;-74
2023/03/01 08:53:33;;;;;;;11.63;5.00;;;;;;;9.42;36.38;102644.19;5068291;27;97240;-75
2023/03/01 08:56:00;;;;;;;20.40;5.70;;;;;;;9.47;36.45;102635.38;5069838;27;101084;-76
2023/03/01 08:58:28;;;;;;;22.55;9.23;;;;;;;9.33;35.99;102630.97;5067368;27;97291;-75
2023/03/01 09:00:56;;;;;;;14.48;4.90;;;;;;;9.45;36.06;102631.84;5070390;27;97182;-75
2023/03/01 09:03:23;;;;;;;8.60;5.10;;;;;;;9.54;35.49;102634.50;5055629;27;98968;-75
2023/03/01 09:05:50;;;;;;;14.05;5.38;;;;;;;9.52;35.52;102622.16;5065145;27;99115;-75
2023/03/01 09:08:16;;;;;;;18.88;5.78;;;;;;;9.57;35.15;102621.31;5065086;27;97070;-74
2023/03/01 09:10:43;;;;;;;14.35;5.28;;;;;;;9.56;35.59;102621.31;5072484;27;98110;-74
2023/03/01 09:13:09;;;;;;;16.63;5.60;;;;;;;9.50;36.07;102621.31;5066498;27;100021;-75
2023/03/01 09:15:39;;;;;;;15.68;5.22;;;;;;;9.70;36.01;102624.78;5068814;27;98917;-75
2023/03/01 09:18:06;;;;;;;13.88;5.60;;;;;;;9.72;35.03;102614.22;5065528;27;98689;-74
2023/03/01 09:20:33;;;;;;;17.70;6.47;;;;;;;9.56;35.21;102624.81;5070756;27;96924;-74
2023/03/01 09:22:59;;;;;;;14.73;5.47;;;;;;;9.91;34.58;102623.88;5067227;27;98981;-76
2023/03/01 09:25:26;;;;;;;13.30;5.20;;;;;;;10.29;34.52;102618.47;5069973;27;98905;-75
2023/03/01 09:27:52;;;;;;;15.93;5.43;;;;;;;10.11;34.49;102613.22;5064702;27;97348;-74
2023/03/01 09:30:19;;;;;;;18.15;5.70;;;;;;;10.27;34.20;102612.28;5067011;27;97045;-75
2023/03/01 09:32:47;;;;;;;13.70;5.53;;;;;;;10.16;34.43;102614.09;5065862;27;98936;-75
2023/03/01 09:35:14;;;;;;;13.70;5.68;;;;;;;10.47;34.28;102613.06;5070473;27;99373;-74
2023/03/01 09:37:42;;;;;;;17.30;6.30;;;;;;;10.47;33.83;102607.78;5068906;27;97130;-75
2023/03/01 09:40:15;;;;;;;19.40;6.45;;;;;;;10.44;34.06;102607.78;5070300;27;97122;-75
2023/03/01 09:42:53;;;;;;;12.20;5.07;;;;;;;10.50;33.70;102615.69;5069877;27;99258;-75
2023/03/01 09:45:26;;;;;;;9.65;4.82;;;;;;;10.58;33.02;102610.34;5067788;27;97670;-75
2023/03/01 09:47:56;;;;;;;8.48;3.97;;;;;;;10.66;32.90;102611.19;5069109;27;96821;-74
2023/03/01 09:50:23;;;;;;;11.52;4.82;;;;;;;10.34;33.38;102600.81;5068971;27;96932;-75
2023/03/01 09:52:57;;;;;;;12.85;5.53;;;;;;;10.37;33.79;102603.47;5070336;27;98947;-75
2023/03/01 09:55:30;;;;;;;11.30;5.38;;;;;;;10.28;34.15;102598.22;5067424;27;99351;-76
2023/03/01 09:58:05;;;;;;;11.55;5.18;;;;;;;9.83;34.10;102604.53;5068337;27;97380;-75
2023/03/01 10:00:40;;;;;;;10.82;4.97;;;;;;;10.15;34.08;102607.03;5071797;27;96731;-75
2023/03/01 10:03:22;;;;;;;10.57;5.47;;;;;;;10.21;34.21;102607.94;5082647;27;98208;-75
2023/03/01 10:05:57;;;;;;;10.60;5.20;;;;;;;10.35;34.15;102602.56;5085192;27;98389;-73
2023/03/01 10:08:35;;;;;;;10.10;5.82;;;;;;;10.72;33.08;102603.22;5083572;27;96840;-73
2023/03/01 10:11:02;;;;;;;11.73;5.70;;;;;;;11.01;33.48;102610.97;5079717;27;96841;-74
2023/03/01 10:13:37;;;;;;;13.90;5.85;;;;;;;11.03;32.73;102615.31;5080361;27;96921;-77
2023/03/01 10:16:12;;;;;;;11.88;5.47;;;;;;;10.78;32.92;102608.47;5078492;27;97216;-75
2023/03/01 10:18:41;;;;;;;13.50;6.28;;;;;;;11.03;32.58;102620.63;5068319;27;97907;-75
2023/03/01 10:21:16;;;;;;;11.32;5.40;;;;;;;11.22;32.32;102613.44;5066844;27;98127;-75
2023/03/01 10:23:43;;;;;;;20.05;5.13;;;;;;;11.33;31.41;102606.28;5069625;27;98966;-76
2023/03/01 10:26:39;;;;;;;11.23;4.95;;;;;;;10.83;31.56;102604.00;5067048;27;99156;-75
2023/03/01 10:29:08;;;;;;;10.27;4.80;;;;;;;11.17;31.41;102607.28;5052808;27;97075;-75
2023/03/01 10:31:40;;;;;;;11.60;5.35;;;;;;;11.46;31.05;102605.25;5072476;27;97537;-76
2023/03/01 10:34:11;;;;;;;13.23;5.15;;;;;;;11.24;31.08;102587.81;5067784;27;99176;-75
2023/03/01 10:36:39;;;;;;;12.50;5.28;;;;;;;11.50;30.63;102591.09;5073463;27;101631;-73
2023/03/01 10:39:13;;;;;;;12.10;5.18;;;;;;;11.90;30.33;102593.34;5074106;27;97214;-74
2023/03/01 10:41:54;;;;;;;9.80;4.68;;;;;;;11.72;30.24;102598.81;5075143;27;96752;-73
2023/03/01 10:44:37;;;;;;;9.52;4.55;;;;;;;11.24;30.95;102589.59;5072795;27;98182;-75
2023/03/01 10:47:04;;;;;;;8.70;4.28;;;;;;;11.61;30.31;102577.75;5072247;27;101487;-74
2023/03/01 10:49:32;;;;;;;11.70;4.50;;;;;;;11.68;29.67;102584.75;5070068;27;97253;-75
2023/03/01 10:52:18;;;;;;;8.13;4.03;;;;;;;11.42;29.66;102582.34;5073833;27;96817;-73
2023/03/01 10:54:53;;;;;;;8.63;3.90;;;;;;;11.34;29.46;102578.91;5069088;27;98923;-76
2023/03/01 10:57:30;;;;;;;7.10;3.47;;;;;;;10.75;29.99;102577.66;5072697;27;99603;-76
2023/03/01 11:00:16;;;;;;;6.63;3.35;;;;;;;11.13;30.08;102577.34;5069478;27;96935;-74
2023/03/01 11:02:42;;;;;;;6.22;3.33;;;;;;;10.83;30.35;102579.38;5065279;27;100361;-74
2023/03/01 11:05:20;;;;;;;10.65;3.28;;;;;;;10.65;30.47;102572.44;5070696;27;101130;-75
2023/03/01 11:07:51;;;;;;;8.57;3.60;;;;;;;10.78;30.69;102563.50;5066891;27;97781;-76
2023/03/01 11:10:19;;;;;;;11.38;3.90;;;;;;;10.87;30.54;102559.94;5074149;27;96789;-74
2023/03/01 11:12:46;;;;;;;9.73;3.58;;;;;;;11.28;29.85;102556.94;5073934;27;97151;-75
2023/03/01 11:15:25;;;;;;;8.27;3.60;;;;;;;11.13;29.14;102556.19;5071333;27;98923;-75
2023/03/01 11:17:53;;;;;;;6.32;3.45;;;;;;;11.05;28.90;102544.78;5067255;27;98878;-76
2023/03/01 11:20:27;;;;;;;15.02;4.90;;;;;;;11.48;28.49;102549.66;5065044;27;97026;-76
2023/03/01 11:22:55;;;;;;;6.53;2.90;;;;;;;11.56;28.26;102540.72;5070471;27;96802;-75
2023/03/01 11:25:26;;;;;;;6.88;2.70;;;;;;;11.50;27.28;102548.72;5072816;27;98004;-76